• Join FlightAware (Why Join?)
  • Login
  • US Flag 
08:36AM EDT


 

Airport Tracker/Info


-or-


 

Live Flight TrackerFlight Track Log ✈ AAL2007 ✈ 30-Jul-2013 ✈ KORD - KAUS

Flight Track Log - Related Links

Times and Time Zones

All times are in EDT time to prevent confusion due to time zone crossing. See the AAL2007 flight status page for this flight to view local times or setup timezone preferences in your user account.

Time Position Orientation Groundspeed Altitude Reporting Facility
EDT Latitude Longitude Course Direction KTS MPH feet Rate Location/Type
06:10PM 41.9333 -87.9333 207° Southwest 173 199 2,800  Level Chicago TRACON
06:11PM 41.8833 -87.9833 217° Southwest 216 249 4,700 2,280 Climbing Chicago TRACON
06:12PM 41.7029 -88.1857 201° Southwest  Level Estimated
06:13PM 41.6099 -88.2781 197° South  Level Estimated
06:13PM 41.7464 -88.0631 203° Southwest 281 323 10,300  Level Chicago Center
06:14PM 41.5167 -88.3703 194° South  Level Estimated
06:14PM 41.6647 -88.0761 187° South 294 338 12,500  Level Chicago Center
06:15PM 41.4281 -88.4577 207° Southwest  Level Estimated
06:15PM 41.5719 -88.1144 197° South 348 400 13,800  Level Chicago Center
06:16PM 41.4800 -88.1531 197° South 376 433 16,200 2,220 Climbing Chicago Center
06:17PM 41.3544 -88.2036 197° South 390 449 18,500 2,040 Climbing Chicago Center
06:18PM 41.2464 -88.2531 199° South 407 468 20,500 1,740 Climbing Chicago Center
06:19PM 41.1353 -88.3033 199° South 417 480 22,100 1,620 Climbing Chicago Center
06:20PM 41.0200 -88.3533 198° South 430 495 23,900 1,680 Climbing Chicago Center
06:21PM 40.9056 -88.4058 199° South 432 497 25,600 1,500 Climbing Chicago Center
06:22PM 40.7867 -88.4617 200° South 448 516 27,100 1,740 Climbing Chicago Center
06:23PM 40.6683 -88.5756 216° Southwest 439 505 29,200 1,740 Climbing Chicago Center
06:24PM 40.5761 -88.6744 219° Southwest 428 493 30,700 1,140 Climbing Chicago Center
06:25PM 40.4842 -88.7761 220° Southwest 429 494 31,600 600 Climbing Chicago Center
06:26PM 40.3908 -88.8769 219° Southwest 431 496 32,000 180 Climbing Chicago Center
06:27PM 40.2972 -88.9767 219° Southwest 430 495 32,000  Level Chicago Center
06:28PM 40.2042 -89.0756 219° Southwest 430 495 32,000  Level Chicago Center
06:29PM 40.1117 -89.1753 220° Southwest 430 495 32,000  Level Chicago Center
06:30PM 39.9986 -89.2958 219° Southwest 434 499 32,000  Level Chicago Center
06:32PM 39.9053 -89.3956 219° Southwest 432 497 32,000  Level Chicago Center
06:33PM 39.8119 -89.4944 219° Southwest 432 497 32,000  Level Chicago Center
06:34PM 39.7175 -89.5944 219° Southwest 435 501 32,000  Level Chicago Center
06:35PM 39.6231 -89.6922 219° Southwest 433 498 32,000 180 Level Chicago Center
06:36PM 39.5292 -89.7914 219° Southwest 434 499 32,400 480 Climbing Chicago Center
06:37PM 39.4383 -89.8869 219° Southwest 425 489 33,100 660 Climbing Chicago Center
06:38PM 39.3283 -90.0008 219° Southwest 422 486 33,800 360 Climbing Chicago Center
06:39PM 39.2242 -90.1128 220° Southwest 420 483 34,000 60 Climbing Kansas City Center
06:40PM 39.1175 -90.2297 220° Southwest 421 484 34,000  Level Kansas City Center
06:41PM 39.0272 -90.3264 220° Southwest 423 487 34,000  Level Kansas City Center
06:42PM 38.9386 -90.4236 220° Southwest 422 486 34,000  Level Kansas City Center
06:43PM 38.8533 -90.5178 221° Southwest 419 482 34,000  Level Kansas City Center
06:44PM 38.7464 -90.6406 222° Southwest 425 489 34,000  Level Kansas City Center
06:45PM 38.6650 -90.7500 226° Southwest 446 513 34,000  Level Kansas City Center
06:46PM 38.5825 -90.8511 224° Southwest 425 489 34,000  Level Kansas City Center
06:47PM 38.4983 -90.9575 225° Southwest 426 490 34,000  Level Kansas City Center
06:48PM 38.4144 -91.0600 224° Southwest 423 487 34,000  Level Kansas City Center
06:49PM 38.3347 -91.1706 227° Southwest 426 490 34,000  Level Kansas City Center
06:50PM 38.2428 -91.3053 229° Southwest 423 487 34,000  Level Kansas City Center
06:51PM 38.1650 -91.4261 231° Southwest 419 482 34,000  Level Kansas City Center
06:52PM 38.0925 -91.5411 231° Southwest 416 479 34,000  Level Kansas City Center
06:54PM 38.0228 -91.6581 233° Southwest 415 478 34,000  Level Kansas City Center
06:55PM 37.9547 -91.7767 234° Southwest 414 476 34,000  Level Kansas City Center
06:56PM 37.8858 -91.8939 233° Southwest 412 474 34,000  Level Kansas City Center
06:57PM 37.8022 -91.9939 223° Southwest 417 480 34,000  Level Kansas City Center
06:58PM 37.6956 -92.0922 216° Southwest 431 496 34,000  Level Kansas City Center
06:59PM 37.6106 -92.1778 219° Southwest 423 487 34,000  Level Kansas City Center
07:00PM 37.4972 -92.2886 218° Southwest 424 488 34,000  Level Kansas City Center
07:01PM 37.4036 -92.3800 218° Southwest 424 488 34,000  Level Kansas City Center
07:02PM 37.3075 -92.4725 217° Southwest 429 494 34,000  Level Kansas City Center
07:03PM 37.2125 -92.5658 218° Southwest 431 496 34,000  Level Kansas City Center
07:04PM 37.1167 -92.6581 218° Southwest 434 499 34,000  Level Kansas City Center
07:05PM 37.0211 -92.7503 218° Southwest 432 497 34,000  Level Kansas City Center
07:06PM 36.9253 -92.8425 218° Southwest 433 498 34,000  Level Kansas City Center
07:07PM 36.8108 -92.9503 217° Southwest 430 495 34,000  Level Kansas City Center
07:08PM 36.7142 -93.0392 216° Southwest 430 495 34,000  Level Kansas City Center
07:09PM 36.6297 -93.1181 217° Southwest 431 496 34,000  Level Kansas City Center
07:10PM 36.5153 -93.2269 217° Southwest 433 498 34,000  Level Kansas City Center
07:11PM 36.4189 -93.3169 217° Southwest 435 501 34,000  Level Kansas City Center
07:12PM 36.3406 -93.3944 219° Southwest 449 517 34,000  Level Memphis Center
07:13PM 36.2425 -93.4861 217° Southwest 443 510 34,000  Level Memphis Center
07:14PM 36.1444 -93.5722 215° Southwest 443 510 34,000  Level Memphis Center
07:15PM 36.0300 -93.6422 206° Southwest 450 518 34,000  Level Memphis Center
07:16PM 35.9197 -93.7097 206° Southwest 450 518 34,000  Level Memphis Center
07:17PM 35.8075 -93.7767 206° Southwest 450 518 34,000  Level Memphis Center
07:18PM 35.6928 -93.8436 205° Southwest 450 518 34,000  Level Memphis Center
07:19PM 35.5806 -93.9078 205° Southwest 458 527 34,000  Level Memphis Center
07:20PM 35.4639 -93.9742 205° Southwest 458 527 34,000  Level Memphis Center
07:21PM 35.3536 -94.0381 205° Southwest 452 520 34,000  Level Memphis Center
07:22PM 35.2433 -94.1019 205° Southwest 452 520 34,000  Level Memphis Center
07:23PM 35.1286 -94.1706 206° Southwest 458 527 34,000  Level Memphis Center
07:24PM 35.0158 -94.2364 206° Southwest 452 520 34,000  Level Memphis Center
07:26PM 34.8164 -94.3633 208° Southwest 448 516 34,000  Level Fort Worth Center
07:27PM 34.7036 -94.4356 208° Southwest 448 516 34,000  Level Fort Worth Center
07:28PM 34.5967 -94.5125 211° Southwest 448 516 34,000  Level Fort Worth Center
07:29PM 34.4967 -94.5989 215° Southwest 448 516 34,000  Level Fort Worth Center
07:30PM 34.3942 -94.6853 215° Southwest 453 521 34,000  Level Fort Worth Center
07:31PM 34.2917 -94.7767 216° Southwest 453 521 34,000  Level Fort Worth Center
07:32PM 34.1914 -94.8625 215° Southwest 453 521 34,000  Level Fort Worth Center
07:33PM 34.0908 -94.9483 215° Southwest 458 527 34,000  Level Fort Worth Center
07:34PM 33.9903 -95.0389 217° Southwest 453 521 34,000  Level Fort Worth Center
07:35PM 33.8875 -95.1267 215° Southwest 453 521 34,000  Level Fort Worth Center
07:36PM 33.7847 -95.2117 215° Southwest 453 521 34,000  Level Fort Worth Center
07:37PM 33.6819 -95.3017 216° Southwest 458 527 34,000  Level Fort Worth Center
07:38PM 33.5811 -95.3864 215° Southwest 458 527 34,000  Level Fort Worth Center
07:39PM 33.4781 -95.4733 215° Southwest 453 521 34,000  Level Fort Worth Center
07:40PM 33.3728 -95.5578 214° Southwest 459 528 34,000  Level Fort Worth Center
07:41PM 33.2842 -95.6317 215° Southwest 454 522 34,000  Level Fort Worth Center
07:42PM 33.1831 -95.7181 216° Southwest 454 522 34,000  Level Fort Worth Center
07:43PM 33.0800 -95.8044 215° Southwest 454 522 34,000  Level Fort Worth Center
07:44PM 32.9767 -95.8956 216° Southwest 454 522 34,000  Level Fort Worth Center
07:45PM 32.8733 -95.9789 214° Southwest 460 529 34,000  Level Fort Worth Center
07:46PM 32.7697 -96.0644 215° Southwest 460 529 34,000  Level Fort Worth Center
07:47PM 32.6683 -96.1522 216° Southwest 460 529 34,000  Level Fort Worth Center
07:48PM 32.5628 -96.2375 214° Southwest 460 529 34,000  Level Fort Worth Center
07:49PM 32.4572 -96.3253 215° Southwest 465 535 34,000  Level Fort Worth Center
07:50PM 32.3514 -96.4125 215° Southwest 465 535 34,000  Level Fort Worth Center
07:51PM 32.2497 -96.4997 216° Southwest 458 527 34,000 -60 Level Fort Worth Center
07:52PM 32.1417 -96.5864 214° Southwest 464 534 33,900 -600 Descending Fort Worth Center
07:53PM 32.0378 -96.6733 215° Southwest 464 534 32,900 -1,200 Descending Fort Worth Center
07:54PM 31.9361 -96.7572 215° Southwest 462 532 31,500 -1,620 Descending Fort Worth Center
07:55PM 31.8275 -96.8433 214° Southwest 461 531 29,700 -1,740 Descending Houston Center
07:56PM 31.7203 -96.9306 215° Southwest 463 533 28,100 -1,620 Descending Houston Center
07:57PM 31.6150 -97.0147 214° Southwest 456 525 26,500 -1,800 Descending Houston Center
07:58PM 31.5108 -97.0914 212° Southwest 443 510 24,500 -2,040 Descending Houston Center
07:59PM 31.3767 -97.1428 198° South 429 494 22,400 -1,860 Descending Houston Center
08:00PM 31.2667 -97.1850 198° South 418 481 20,700 -1,860 Descending Houston Center
08:01PM 31.1625 -97.2264 199° South 398 458 18,700 -2,100 Descending Houston Center
08:02PM 31.0611 -97.2664 199° South 387 445 16,500 -2,100 Descending Houston Center
08:03PM 30.9703 -97.3036 199° South 377 434 14,400 -2,040 Descending Houston Center
08:04PM 30.8606 -97.3567 203° Southwest 351 404 12,300 -1,680 Descending Houston Center
08:05PM 30.7853 -97.4075 210° Southwest 314 361 11,000 -1,680 Descending Houston Center
08:06PM 30.7175 -97.4564 212° Southwest 292 336 8,900 -2,100 Descending Houston Center
08:06PM 30.6819 -97.4828 213° Southwest 281 323 7,800 -1,860 Descending Houston Center
08:07PM 30.6506 -97.5033 209° Southwest 281 323 7,000 -1,200 Descending Houston Center
08:08PM 30.5881 -97.5481 212° Southwest 266 306 6,000 -660 Descending Houston Center
08:09PM 30.5283 -97.5931 213° Southwest 257 296 5,700 -540 Descending Houston Center
08:10PM 30.4750 -97.6317 212° Southwest 232 267 4,900 -1,080 Descending Houston Center
08:11PM 30.4339 -97.6633 214° Southwest 204 235 3,800 -1,200 Descending Houston Center
08:12PM 30.3744 -97.6875 199° South 202 232 2,500 -780 Descending Houston Center
08:13PM 30.3153 -97.6822 176° South 187 215 2,100 -480 Descending Houston Center
08:14PM 30.2708 -97.6792 177° South 172 198 1,600 -600 Descending Houston Center
08:15PM 30.2317 -97.6792 180° South 153 176 900 -420 Descending Houston Center
08:16PM 30.1958 -97.6781 178° South 150 173 800 -120 Descending Houston Center